Time;durP1;ratioP1;P1;durP2;ratioP2;P2;SDS_P1;SDS_P2;PMS_P1;PMS_P2;Temp;Humidity;BMP_temperature;BMP_pressure;BME280_temperature;BME280_humidity;BME280_pressure;Samples;Min_cycle;Max_cycle;Signal;HPM_P1;HPM_P2
2023/07/04 00:01:12;;;;;;;45.93;22.23;;;;;;;18.66;88.90;100144.47;1482575;87;21338;-87
2023/07/04 00:03:41;;;;;;;43.50;22.50;;;;;;;18.66;89.04;100139.63;1474891;87;21382;-85
2023/07/04 00:06:12;;;;;;;42.88;21.05;;;;;;;18.65;89.40;100144.70;1485852;88;21500;-84
2023/07/04 00:08:39;;;;;;;44.27;22.40;;;;;;;18.62;90.29;100145.93;1488948;87;21433;-84
2023/07/04 00:11:07;;;;;;;30.17;17.00;;;;;;;18.59;89.91;100142.33;1481925;87;22684;-83
2023/07/04 00:13:36;;;;;;;35.10;15.63;;;;;;;18.56;90.63;100152.13;1489417;87;21432;-85
2023/07/04 00:16:09;;;;;;;31.60;16.53;;;;;;;18.55;91.20;100150.97;1481282;88;21406;-85
2023/07/04 00:18:38;;;;;;;36.80;16.57;;;;;;;18.54;91.07;100142.64;1476922;88;21581;-84
2023/07/04 00:21:11;;;;;;;69.53;31.10;;;;;;;18.55;90.84;100144.27;1487216;87;21381;-85
2023/07/04 00:23:36;;;;;;;82.13;38.67;;;;;;;18.54;90.60;100145.31;1481104;88;21374;-85
2023/07/04 00:26:06;;;;;;;79.17;38.37;;;;;;;18.48;91.04;100137.06;1493232;87;22803;-88
2023/07/04 00:28:33;;;;;;;;;;;;;;;18.44;90.79;100138.52;1485919;87;22252;-88
2023/07/04 00:31:02;;;;;;;52.97;23.90;;;;;;;18.41;91.34;100142.95;1462719;89;20263;-88
2023/07/04 00:33:30;;;;;;;40.47;22.60;;;;;;;18.40;91.10;100141.80;1473905;88;21470;-86
2023/07/04 00:36:09;;;;;;;41.07;20.67;;;;;;;18.39;91.30;100139.64;1494948;87;21329;-87
2023/07/04 00:38:38;;;;;;;27.70;15.20;;;;;;;18.39;91.51;100139.64;1479373;87;21382;-88
2023/07/04 00:41:13;;;;;;;19.47;12.63;;;;;;;18.40;91.61;100139.94;1485527;87;21514;-87
2023/07/04 00:44:09;;;;;;;18.80;9.27;;;;;;;18.38;91.35;100136.64;1481720;88;21853;-85
2023/07/04 00:46:41;;;;;;;21.87;9.80;;;;;;;18.35;91.37;100129.02;1501186;87;21374;-86
2023/07/04 00:49:18;;;;;;;15.60;9.00;;;;;;;18.30;91.39;100126.15;1479400;87;22702;-87
2023/07/04 00:51:58;;;;;;;15.63;9.70;;;;;;;18.30;91.33;100126.15;1489864;87;21544;-85
2023/07/04 00:54:29;;;;;;;13.95;9.13;;;;;;;18.32;91.08;100130.77;1482293;87;22306;-86
2023/07/04 00:57:02;;;;;;;16.80;9.43;;;;;;;18.30;91.19;100132.84;1480709;88;21573;-86
2023/07/04 00:59:27;;;;;;;17.47;7.80;;;;;;;18.29;91.04;100131.70;1462064;89;21470;-86
2023/07/04 01:01:56;;;;;;;15.70;10.07;;;;;;;18.28;90.69;100138.09;1475213;88;21337;-88
2023/07/04 01:04:23;;;;;;;14.93;9.77;;;;;;;18.26;90.71;100139.63;1457481;88;21489;-84
2023/07/04 01:06:55;;;;;;;13.83;9.20;;;;;;;18.23;90.83;100136.84;1486145;87;21301;-85
2023/07/04 01:09:23;;;;;;;17.50;10.00;;;;;;;18.24;90.80;100137.66;1478246;88;21373;-83
2023/07/04 01:11:52;;;;;;;21.37;9.73;;;;;;;18.23;90.76;100138.70;1491740;87;21374;-83
2023/07/04 01:14:25;;;;;;;17.50;8.93;;;;;;;18.25;90.79;100132.63;1462691;88;22218;-83
2023/07/04 01:16:54;;;;;;;18.03;9.27;;;;;;;18.29;90.67;100139.21;1476718;88;21426;-86
2023/07/04 01:19:32;;;;;;;15.83;9.57;;;;;;;18.31;90.46;100133.66;1475261;88;22415;-86
2023/07/04 01:22:16;;;;;;;19.53;9.57;;;;;;;18.31;90.21;100130.47;1480984;88;21323;-84
2023/07/04 01:24:54;;;;;;;17.30;11.60;;;;;;;18.29;89.98;100128.50;1487176;87;22027;-86
2023/07/04 01:27:23;;;;;;;26.43;12.27;;;;;;;18.24;90.04;100126.94;1475886;87;22217;-90
2023/07/04 01:29:49;;;;;;;16.73;9.97;;;;;;;18.21;90.15;100130.88;1483313;88;21434;-89
2023/07/04 01:32:15;;;;;;;17.40;9.97;;;;;;;18.18;90.44;100123.75;1481746;88;21470;-90
2023/07/04 01:34:42;;;;;;;16.07;10.20;;;;;;;18.20;90.48;100125.72;1485924;87;22512;-90
2023/07/04 01:37:08;;;;;;;17.27;10.83;;;;;;;18.21;90.35;100127.36;1454660;88;21547;-88
2023/07/04 01:39:34;;;;;;;14.77;9.67;;;;;;;18.18;90.12;100125.09;1494515;87;21617;-91
2023/07/04 01:42:05;;;;;;;19.53;11.53;;;;;;;18.13;90.09;100127.58;1479647;88;21404;-91
2023/07/04 01:44:28;;;;;;;13.73;8.47;;;;;;;18.10;90.23;100134.68;1487768;87;21477;-87
2023/07/04 01:46:54;;;;;;;14.67;9.10;;;;;;;18.04;90.24;100127.77;1478917;87;21471;-87
2023/07/04 01:49:20;;;;;;;19.33;10.50;;;;;;;18.02;90.47;100136.51;1488573;87;21373;-87
2023/07/04 01:51:47;;;;;;;16.47;8.83;;;;;;;18.01;90.84;100133.53;1475764;88;21441;-87
2023/07/04 01:54:18;;;;;;;13.13;9.23;;;;;;;18.02;90.88;100131.16;1452373;88;21427;-87
2023/07/04 01:56:44;;;;;;;17.03;9.73;;;;;;;18.04;90.67;100124.27;1486668;87;21595;-87
2023/07/04 01:59:11;;;;;;;16.43;10.23;;;;;;;18.05;90.49;100127.25;1480351;87;21426;-87
2023/07/04 02:01:37;;;;;;;16.47;9.87;;;;;;;18.05;90.33;100125.91;1483116;88;21272;-87
2023/07/04 02:04:04;;;;;;;15.37;9.93;;;;;;;18.02;90.48;100132.49;1493207;87;21403;-88
2023/07/04 02:06:30;;;;;;;16.57;10.23;;;;;;;17.97;90.42;100134.12;1477704;87;21381;-87
2023/07/04 02:08:56;;;;;;;13.53;8.20;;;;;;;17.96;90.44;100140.52;1490249;87;21464;-87
2023/07/04 02:11:22;;;;;;;17.03;10.40;;;;;;;17.96;90.53;100137.33;1482586;87;21367;-87
2023/07/04 02:13:48;;;;;;;16.70;9.63;;;;;;;17.97;90.59;100134.95;1490145;87;22247;-88
2023/07/04 02:16:15;;;;;;;16.20;9.33;;;;;;;17.96;90.60;100137.33;1488705;87;21418;-88
2023/07/04 02:18:41;;;;;;;16.53;10.30;;;;;;;17.95;90.49;100142.38;1485446;87;21492;-83
2023/07/04 02:21:07;;;;;;;17.37;10.13;;;;;;;17.94;90.33;100145.24;1474301;87;22189;-83
2023/07/04 02:23:33;;;;;;;15.33;10.10;;;;;;;17.92;90.29;100142.76;1490862;87;21359;-84
2023/07/04 02:25:59;;;;;;;19.10;10.70;;;;;;;17.87;90.37;100147.92;1477275;87;21507;-85
2023/07/04 02:28:25;;;;;;;13.97;9.53;;;;;;;17.83;90.53;100142.64;1488530;87;21501;-88
2023/07/04 02:30:57;;;;;;;22.40;9.77;;;;;;;17.81;91.11;100145.53;1494943;87;21925;-87
2023/07/04 02:33:23;;;;;;;18.57;10.13;;;;;;;17.81;91.50;100150.88;1491454;87;21419;-86
2023/07/04 02:35:52;;;;;;;21.93;11.93;;;;;;;17.84;91.65;100156.35;1497572;87;21366;-89
2023/07/04 02:38:18;;;;;;;21.60;12.17;;;;;;;17.88;91.50;100154.91;1483570;87;21463;-87
2023/07/04 02:40:47;;;;;;;17.37;11.90;;;;;;;17.91;91.24;100157.18;1480292;88;21433;-85
2023/07/04 02:43:13;;;;;;;17.17;10.27;;;;;;;17.92;91.08;100155.33;1474512;88;22358;-85
2023/07/04 02:45:41;;;;;;;17.87;9.73;;;;;;;17.91;91.09;100160.38;1478363;88;21382;-86
2023/07/04 02:48:07;;;;;;;18.63;10.57;;;;;;;17.89;90.93;100153.88;1471893;88;22254;-85
2023/07/04 02:50:34;;;;;;;19.10;10.67;;;;;;;17.88;90.95;100152.23;1492933;87;21366;-84
2023/07/04 02:53:03;;;;;;;14.00;8.07;;;;;;;17.89;91.13;100158.41;1489024;87;21521;-88
2023/07/04 02:55:29;;;;;;;16.35;8.33;;;;;;;17.88;90.89;100157.59;1478312;88;21353;-87
2023/07/04 02:57:56;;;;;;;16.43;10.20;;;;;;;17.88;90.92;100158.92;1477523;88;21687;-88
2023/07/04 03:00:23;;;;;;;18.93;10.60;;;;;;;17.86;90.72;100159.63;1485148;87;21352;-89
2023/07/04 03:02:49;;;;;;;17.37;10.57;;;;;;;17.86;90.58;100160.97;1477782;87;21397;-89
2023/07/04 03:05:15;;;;;;;16.43;9.90;;;;;;;17.85;90.48;100159.33;1486258;87;21810;-87
2023/07/04 03:07:42;;;;;;;18.90;10.37;;;;;;;17.82;90.33;100163.75;1477115;87;21486;-90
2023/07/04 03:10:08;;;;;;;16.87;9.87;;;;;;;17.82;90.64;100158.39;1456720;88;21323;-87
2023/07/04 03:12:34;;;;;;;15.13;9.27;;;;;;;17.83;90.80;100168.06;1478006;88;21514;-87
2023/07/04 03:15:01;;;;;;;14.13;9.03;;;;;;;17.85;90.91;100167.36;1446894;87;21330;-87
2023/07/04 03:17:27;;;;;;;17.83;10.27;;;;;;;17.90;91.10;100166.25;1473929;87;21374;-86
2023/07/04 03:19:53;;;;;;;14.90;9.93;;;;;;;17.95;91.08;100166.48;1491154;87;21337;-86
2023/07/04 03:22:19;;;;;;;17.80;9.77;;;;;;;17.99;90.89;100170.91;1477880;87;21374;-87
2023/07/04 03:24:45;;;;;;;18.17;10.40;;;;;;;18.02;91.10;100171.32;1492647;87;21345;-84
2023/07/04 03:27:11;;;;;;;22.80;10.70;;;;;;;18.06;90.88;100173.07;1487417;87;21440;-86
2023/07/04 03:29:37;;;;;;;21.73;11.43;;;;;;;18.10;90.89;100173.52;1487682;87;22474;-84
2023/07/04 03:32:05;;;;;;;18.60;9.43;;;;;;;18.13;91.05;100173.11;1477210;87;21529;-84
2023/07/04 03:34:31;;;;;;;16.00;10.33;;;;;;;18.18;91.10;100170.62;1475405;88;21975;-84
2023/07/04 03:36:57;;;;;;;16.93;10.33;;;;;;;18.23;91.06;100165.48;1489936;87;22358;-85
2023/07/04 03:39:24;;;;;;;16.20;10.63;;;;;;;18.32;90.96;100164.25;1485754;87;21329;-84
2023/07/04 03:41:50;;;;;;;19.50;11.70;;;;;;;18.38;90.65;100163.42;1480483;88;21500;-83
2023/07/04 03:44:16;;;;;;;19.03;10.70;;;;;;;18.44;90.28;100159.11;1493506;87;21462;-83
2023/07/04 03:46:42;;;;;;;22.57;11.00;;;;;;;18.45;89.84;100166.13;1481936;87;21374;-83
2023/07/04 03:49:08;;;;;;;15.90;10.70;;;;;;;18.45;89.59;100172.31;1479630;88;21448;-83
2023/07/04 03:51:35;;;;;;;17.93;9.30;;;;;;;18.44;89.46;100167.99;1475383;88;22328;-82
2023/07/04 03:54:01;;;;;;;23.33;11.20;;;;;;;18.47;89.56;100168.92;1475918;88;21853;-81
2023/07/04 03:56:27;;;;;;;17.50;9.40;;;;;;;18.51;89.61;100172.53;1492587;87;21411;-83
2023/07/04 03:58:53;;;;;;;16.23;10.40;;;;;;;18.57;89.73;100177.06;1482953;87;22285;-83
2023/07/04 04:01:21;;;;;;;14.27;11.00;;;;;;;18.62;89.67;100181.30;1490083;87;21359;-83
2023/07/04 04:03:47;;;;;;;16.37;10.93;;;;;;;18.67;89.61;100182.81;1484182;88;21441;-84
2023/07/04 04:06:13;;;;;;;17.00;10.43;;;;;;;18.74;89.80;100186.37;1477307;88;22335;-83
2023/07/04 04:08:39;;;;;;;26.67;12.23;;;;;;;18.82;90.20;100180.80;1475679;88;21481;-82
2023/07/04 04:11:05;;;;;;;26.70;12.17;;;;;;;18.84;91.33;100178.72;1491185;87;21396;-83
2023/07/04 04:13:31;;;;;;;18.63;10.93;;;;;;;18.83;91.15;100177.08;1480938;88;22211;-83
2023/07/04 04:15:57;;;;;;;17.27;11.50;;;;;;;18.89;91.07;100180.78;1485506;88;21360;-83
2023/07/04 04:18:24;;;;;;;17.43;10.37;;;;;;;18.99;91.33;100184.38;1494582;87;22845;-79
2023/07/04 04:20:50;;;;;;;16.70;11.65;;;;;;;19.11;91.57;100186.75;1474393;87;21337;-80
2023/07/04 04:23:17;;;;;;;17.07;10.70;;;;;;;19.25;91.51;100197.75;1468012;87;21447;-80
2023/07/04 04:25:45;;;;;;;23.45;12.60;;;;;;;19.39;91.24;100195.84;1481023;88;22329;-79
2023/07/04 04:28:12;;;;;;;23.57;13.30;;;;;;;19.53;90.92;100195.28;1490231;87;21433;-79
2023/07/04 04:30:40;;;;;;;20.23;12.28;;;;;;;19.63;90.40;100197.54;1488628;87;21793;-79
2023/07/04 04:33:07;;;;;;;22.17;12.88;;;;;;;19.75;90.05;100192.66;1474810;87;21500;-80
2023/07/04 04:35:36;;;;;;;27.42;11.48;;;;;;;19.88;89.83;100197.16;1486450;88;21382;-79
2023/07/04 04:38:02;;;;;;;23.42;11.78;;;;;;;20.03;89.80;100201.72;1484711;88;21627;-79
2023/07/04 04:40:28;;;;;;;18.52;11.00;;;;;;;20.22;89.63;100193.73;1484022;87;21381;-79
2023/07/04 04:42:55;;;;;;;31.20;13.10;;;;;;;20.41;89.31;100206.75;1477780;87;21508;-80
2023/07/04 04:45:25;;;;;;;23.07;13.22;;;;;;;20.60;88.66;100215.73;1496747;87;22512;-81
2023/07/04 04:47:55;;;;;;;23.65;13.00;;;;;;;20.77;87.94;100214.67;1460883;88;21470;-81
2023/07/04 04:50:34;;;;;;;21.48;12.58;;;;;;;20.94;87.09;100213.07;1472607;88;22536;-82
2023/07/04 04:52:59;;;;;;;27.55;13.95;;;;;;;21.08;86.04;100211.91;1496121;87;21521;-82
2023/07/04 04:55:26;;;;;;;19.77;11.93;;;;;;;21.24;85.18;100220.47;1488893;87;22421;-82
2023/07/04 04:57:53;;;;;;;19.55;12.95;;;;;;;21.34;84.94;100220.76;1482104;87;21555;-83
2023/07/04 05:00:20;;;;;;;23.73;14.35;;;;;;;21.45;84.20;100225.97;1460914;88;21352;-81
2023/07/04 05:02:46;;;;;;;23.92;14.00;;;;;;;21.51;83.43;100233.95;1486022;88;21411;-80
2023/07/04 05:05:13;;;;;;;24.77;15.93;;;;;;;21.62;82.89;100241.30;1483401;87;21359;-81
2023/07/04 05:07:40;;;;;;;23.20;14.10;;;;;;;21.74;82.56;100243.23;1497188;87;21573;-81
2023/07/04 05:10:06;;;;;;;20.37;12.33;;;;;;;21.90;82.31;100243.98;1477199;88;22402;-80
2023/07/04 05:12:34;;;;;;;29.10;14.28;;;;;;;22.00;81.61;100243.43;1484667;87;21559;-82
2023/07/04 05:15:00;;;;;;;23.40;12.40;;;;;;;22.09;80.68;100235.32;1483704;87;21345;-79
2023/07/04 05:17:26;;;;;;;32.90;13.58;;;;;;;22.23;80.74;100245.44;1492874;87;22312;-80
2023/07/04 05:19:52;;;;;;;25.43;13.70;;;;;;;22.23;80.74;100245.44;1488433;87;22255;-79
2023/07/04 05:22:20;;;;;;;21.57;13.35;;;;;;;22.33;79.99;100226.84;1475684;87;21574;-80
2023/07/04 05:24:47;;;;;;;24.80;13.93;;;;;;;22.47;79.35;100247.17;1488852;87;21374;-80
2023/07/04 05:27:14;;;;;;;17.90;13.78;;;;;;;22.47;79.35;100247.17;1489637;87;22416;-81
2023/07/04 05:29:40;;;;;;;21.70;13.30;;;;;;;22.56;79.22;100240.07;1490594;87;21374;-81
2023/07/04 05:32:08;;;;;;;19.02;12.10;;;;;;;22.59;78.73;100240.98;1486250;87;21575;-80
2023/07/04 05:34:34;;;;;;;22.32;13.98;;;;;;;22.57;78.31;100239.04;1487566;87;22269;-81
2023/07/04 05:37:04;;;;;;;23.25;13.58;;;;;;;22.54;78.06;100238.97;1489187;87;21417;-79
2023/07/04 05:39:30;;;;;;;21.35;13.13;;;;;;;22.52;77.81;100244.58;1493294;87;21374;-76
2023/07/04 05:41:57;;;;;;;17.87;12.00;;;;;;;22.47;77.79;100248.52;1475808;87;21537;-79
2023/07/04 05:44:23;;;;;;;21.95;13.45;;;;;;;22.40;77.31;100258.56;1484691;87;22278;-79
2023/07/04 05:46:51;;;;;;;25.50;12.45;;;;;;;22.34;77.77;100260.83;1476259;87;21445;-79
2023/07/04 05:49:17;;;;;;;32.83;13.05;;;;;;;22.29;78.18;100259.34;1479404;88;22490;-79
2023/07/04 05:55:51;;;;;;;23.30;12.73;;;;;;;22.24;78.83;100253.80;1487036;87;21706;-79
2023/07/04 05:58:19;;;;;;;20.97;12.33;;;;;;;22.18;79.03;100253.38;1483757;87;21447;-79
2023/07/04 06:00:47;;;;;;;22.70;14.50;;;;;;;22.12;79.38;100259.65;1471779;87;21785;-78
2023/07/04 06:03:17;;;;;;;28.47;14.30;;;;;;;22.06;79.68;100255.99;1488821;87;21477;-79
2023/07/04 06:05:42;;;;;;;18.32;13.38;;;;;;;22.00;80.17;100259.06;1493004;87;21402;-79
2023/07/04 06:08:08;;;;;;;21.17;14.65;;;;;;;21.95;81.53;100264.34;1477527;88;21418;-79
2023/07/04 06:10:36;;;;;;;22.40;14.25;;;;;;;21.88;83.78;100264.92;1486636;87;22394;-80
2023/07/04 06:13:02;;;;;;;24.47;14.58;;;;;;;21.85;84.23;100268.08;1477087;87;21508;-79
2023/07/04 06:15:29;;;;;;;40.20;14.58;;;;;;;21.85;84.46;100273.46;1476351;88;21367;-79
2023/07/04 06:17:55;;;;;;;27.40;15.65;;;;;;;21.81;85.64;100266.89;1449615;88;21447;-83
2023/07/04 06:20:22;;;;;;;26.55;15.88;;;;;;;21.76;85.70;100270.78;1489882;87;21919;-80
2023/07/04 06:22:49;;;;;;;21.00;13.85;;;;;;;21.73;85.92;100269.88;1474165;87;21345;-82
2023/07/04 06:25:16;;;;;;;20.62;13.98;;;;;;;21.72;86.28;100274.95;1461344;88;21923;-81
2023/07/04 06:27:44;;;;;;;24.12;13.83;;;;;;;21.63;86.52;100260.43;1490088;87;21344;-83
2023/07/04 06:30:11;;;;;;;24.67;14.98;;;;;;;21.70;87.70;100277.06;1488947;87;21410;-82
2023/07/04 06:32:37;;;;;;;20.77;14.53;;;;;;;21.67;88.10;100277.52;1479887;88;21396;-82
2023/07/04 06:35:05;;;;;;;27.35;15.38;;;;;;;21.62;87.92;100278.99;1492835;87;21292;-82
2023/07/04 06:37:31;;;;;;;24.25;14.28;;;;;;;21.63;87.85;100279.81;1477863;87;22133;-82
2023/07/04 06:39:57;;;;;;;26.60;15.28;;;;;;;21.61;87.67;100277.89;1477026;88;21603;-82
2023/07/04 06:42:23;;;;;;;20.62;15.18;;;;;;;21.62;87.88;100280.34;1477520;88;21344;-83
2023/07/04 06:44:50;;;;;;;31.10;15.25;;;;;;;21.64;88.16;100281.48;1484932;87;22535;-82
2023/07/04 06:47:16;;;;;;;27.25;16.20;;;;;;;21.65;88.63;100286.33;1481413;87;21344;-82
2023/07/04 06:49:42;;;;;;;22.98;15.75;;;;;;;21.67;88.72;100296.37;1491184;87;21455;-82
2023/07/04 06:52:08;;;;;;;26.65;15.88;;;;;;;21.72;88.95;100303.23;1472978;87;21566;-82
2023/07/04 06:54:34;;;;;;;27.30;14.18;;;;;;;21.71;90.35;100301.59;1486562;87;22985;-81
2023/07/04 06:57:04;;;;;;;28.67;16.45;;;;;;;21.74;90.19;100301.14;1476255;88;21492;-82
2023/07/04 06:59:30;;;;;;;23.35;15.72;;;;;;;21.74;90.19;100301.14;1487654;87;21551;-82
2023/07/04 07:01:57;;;;;;;24.52;14.93;;;;;;;21.83;90.69;100310.56;1480604;88;21537;-84
2023/07/04 07:04:23;;;;;;;22.95;15.32;;;;;;;21.83;91.07;100295.22;1475741;88;21419;-82
2023/07/04 07:06:49;;;;;;;24.63;17.12;;;;;;;21.84;91.35;100296.07;1484844;87;21566;-82
2023/07/04 07:09:15;;;;;;;29.48;17.17;;;;;;;21.97;91.93;100308.02;1495642;87;21330;-83
2023/07/04 07:11:42;;;;;;;21.52;15.65;;;;;;;22.06;90.78;100307.19;1491138;87;22367;-83
2023/07/04 07:14:08;;;;;;;19.10;14.65;;;;;;;22.06;90.78;100307.19;1477339;87;21368;-83
2023/07/04 07:16:34;;;;;;;21.25;14.70;;;;;;;22.07;91.10;100306.98;1467024;87;21447;-82
2023/07/04 07:19:00;;;;;;;20.62;15.48;;;;;;;22.05;91.57;100304.20;1480678;88;22217;-83
2023/07/04 07:21:27;;;;;;;18.75;14.53;;;;;;;22.01;91.67;100305.19;1492508;87;21315;-81
2023/07/04 07:23:54;;;;;;;19.55;15.15;;;;;;;22.02;91.49;100295.23;1489444;87;21547;-82
2023/07/04 07:26:23;;;;;;;20.68;14.18;;;;;;;22.02;91.93;100302.78;1474448;88;21389;-83
2023/07/04 07:28:49;;;;;;;19.23;14.45;;;;;;;22.02;92.61;100306.01;1471662;88;22518;-82
2023/07/04 07:31:23;;;;;;;25.90;14.98;;;;;;;22.03;92.34;100296.87;1490178;87;21359;-83
2023/07/04 07:33:51;;;;;;;20.48;14.35;;;;;;;22.04;91.39;100302.05;1474043;87;21559;-83
2023/07/04 07:36:37;;;;;;;23.67;14.85;;;;;;;22.12;91.58;100306.28;1476488;88;21544;-82
2023/07/04 07:39:06;;;;;;;21.02;14.63;;;;;;;22.20;90.87;100302.50;1478386;88;21500;-83
2023/07/04 07:41:37;;;;;;;23.95;16.15;;;;;;;22.22;89.84;100306.61;1490051;87;21345;-82
2023/07/04 07:44:05;;;;;;;22.85;14.38;;;;;;;22.27;89.65;100302.72;1463782;88;21412;-83
2023/07/04 07:46:32;;;;;;;17.17;14.23;;;;;;;22.39;90.08;100306.81;1469560;88;21345;-83
2023/07/04 07:48:58;;;;;;;21.33;13.32;;;;;;;22.51;89.55;100307.67;1494267;87;21366;-83
2023/07/04 07:51:26;;;;;;;23.67;13.90;;;;;;;22.64;89.28;100303.97;1476881;88;22424;-82
2023/07/04 07:53:54;;;;;;;23.65;14.75;;;;;;;22.66;88.41;100307.78;1486847;87;21359;-83
2023/07/04 07:56:23;;;;;;;19.48;13.60;;;;;;;22.74;88.85;100310.97;1491759;87;21529;-83
2023/07/04 07:58:50;;;;;;;20.20;15.23;;;;;;;22.81;88.42;100310.86;1494638;87;22290;-81
2023/07/04 08:01:23;;;;;;;24.07;15.45;;;;;;;22.85;88.18;100302.61;1486396;87;21380;-80
2023/07/04 08:03:50;;;;;;;20.35;14.73;;;;;;;22.83;88.20;100309.30;1486488;88;21367;-83
2023/07/04 08:06:25;;;;;;;22.05;14.58;;;;;;;22.86;88.34;100302.08;1490971;87;21352;-82
2023/07/04 08:08:52;;;;;;;28.73;15.83;;;;;;;22.84;88.55;100311.73;1491498;87;21661;-82
2023/07/04 08:11:20;;;;;;;21.15;15.60;;;;;;;22.79;88.92;100307.59;1482866;87;21353;-83
2023/07/04 08:13:47;;;;;;;25.40;17.83;;;;;;;22.79;89.26;100319.73;1476473;88;21646;-82
2023/07/04 08:16:20;;;;;;;21.65;14.93;;;;;;;22.79;89.56;100311.63;1487186;87;21314;-83
2023/07/04 08:18:48;;;;;;;26.33;15.58;;;;;;;22.75;89.28;100311.25;1474712;87;21754;-82
2023/07/04 08:21:14;;;;;;;22.60;17.05;;;;;;;22.66;88.82;100315.87;1488706;87;21336;-83
2023/07/04 08:23:41;;;;;;;24.82;16.25;;;;;;;22.59;88.58;100312.45;1480048;88;21492;-81
2023/07/04 08:26:07;;;;;;;24.63;14.80;;;;;;;22.50;89.39;100326.27;1488475;87;21522;-83
2023/07/04 08:28:33;;;;;;;25.88;16.93;;;;;;;22.47;90.19;100324.52;1481122;88;22270;-82
2023/07/04 08:31:08;;;;;;;30.65;17.12;;;;;;;22.42;90.92;100325.22;1493028;87;21463;-85
2023/07/04 08:33:35;;;;;;;21.70;15.68;;;;;;;22.46;91.30;100321.54;1476129;87;21352;-83
2023/07/04 08:36:09;;;;;;;25.57;16.23;;;;;;;22.57;91.93;100323.99;1489856;87;21462;-85
2023/07/04 08:38:35;;;;;;;26.20;17.12;;;;;;;22.61;91.26;100324.64;1482935;88;21345;-82
2023/07/04 08:41:03;;;;;;;24.10;16.75;;;;;;;22.68;91.05;100324.56;1486332;87;21329;-83
2023/07/04 08:43:39;;;;;;;22.37;16.00;;;;;;;22.79;90.84;100330.52;1491302;87;21299;-82
2023/07/04 08:46:09;;;;;;;28.45;17.25;;;;;;;22.92;90.59;100328.95;1476027;88;21580;-82
2023/07/04 08:48:37;;;;;;;24.12;16.52;;;;;;;23.05;90.12;100324.45;1469893;88;21375;-83
2023/07/04 08:51:04;;;;;;;22.95;16.15;;;;;;;23.09;88.72;100325.09;1488007;87;21301;-83
2023/07/04 08:53:31;;;;;;;21.85;15.10;;;;;;;23.21;89.01;100325.09;1494587;87;21380;-83
2023/07/04 08:56:09;;;;;;;22.42;15.25;;;;;;;23.32;88.74;100329.69;1478272;87;21454;-83
2023/07/04 08:58:52;;;;;;;23.55;16.25;;;;;;;23.39;87.79;100323.66;1481174;88;21410;-83
2023/07/04 09:01:27;;;;;;;24.95;15.55;;;;;;;23.53;88.04;100327.45;1479174;88;22471;-83
2023/07/04 09:04:13;;;;;;;26.02;15.90;;;;;;;23.67;88.10;100323.45;1485338;87;22425;-83
2023/07/04 09:06:53;;;;;;;20.00;15.40;;;;;;;23.85;88.66;100338.23;1495964;87;21455;-81
2023/07/04 09:09:25;;;;;;;22.10;14.60;;;;;;;24.07;87.84;100342.99;1478789;88;22276;-82
2023/07/04 09:11:52;;;;;;;26.15;15.70;;;;;;;24.21;86.64;100338.95;1478008;87;21373;-82
2023/07/04 09:14:30;;;;;;;22.32;13.50;;;;;;;24.27;85.17;100340.70;1495571;87;21512;-81
2023/07/04 09:16:57;;;;;;;19.73;12.75;;;;;;;24.35;84.31;100349.52;1489596;87;21573;-82
2023/07/04 09:19:23;;;;;;;20.77;13.83;;;;;;;24.35;81.80;100346.27;1479565;87;21523;-82
2023/07/04 09:21:51;;;;;;;20.65;12.40;;;;;;;24.36;81.52;100353.31;1477601;88;21523;-82
2023/07/04 09:24:17;;;;;;;19.75;13.40;;;;;;;24.35;81.39;100350.86;1463922;88;21286;-84
2023/07/04 09:26:52;;;;;;;20.60;13.98;;;;;;;24.21;79.06;100348.42;1490926;87;21562;-83
2023/07/04 09:29:24;;;;;;;19.80;14.58;;;;;;;24.20;79.78;100353.55;1495319;87;22729;-82
2023/07/04 09:31:57;;;;;;;18.92;12.93;;;;;;;24.21;79.98;100353.02;1480050;87;22247;-83
2023/07/04 09:34:38;;;;;;;20.43;14.65;;;;;;;24.25;80.41;100356.33;1484157;88;22188;-84
2023/07/04 09:37:18;;;;;;;17.42;13.30;;;;;;;24.26;80.36;100355.83;1490133;87;21395;-83
2023/07/04 09:39:54;;;;;;;24.65;14.58;;;;;;;24.27;80.09;100350.16;1488855;87;21410;-84
2023/07/04 09:42:25;;;;;;;20.23;13.98;;;;;;;24.40;80.53;100356.34;1483980;87;22394;-83
2023/07/04 09:44:54;;;;;;;26.93;13.55;;;;;;;24.51;81.16;100354.16;1486008;88;21286;-83
2023/07/04 09:47:27;;;;;;;19.53;13.20;;;;;;;24.63;80.90;100350.91;1487375;87;21447;-84
2023/07/04 09:50:13;;;;;;;16.65;13.88;;;;;;;24.76;80.92;100350.58;1488684;87;21337;-83
2023/07/04 09:52:42;;;;;;;17.90;14.68;;;;;;;24.87;80.29;100343.47;1479823;87;22357;-82
2023/07/04 09:55:17;;;;;;;21.75;14.13;;;;;;;24.99;80.04;100344.75;1466063;87;22318;-83
2023/07/04 09:57:44;;;;;;;21.02;14.73;;;;;;;25.08;79.39;100337.86;1477293;88;21507;-83
2023/07/04 10:00:19;;;;;;;25.62;15.15;;;;;;;25.13;79.07;100339.30;1477536;88;21404;-83
2023/07/04 10:02:48;;;;;;;22.62;14.53;;;;;;;25.20;78.64;100333.75;1493273;87;22254;-84
2023/07/04 10:05:32;;;;;;;21.02;13.32;;;;;;;25.25;78.91;100324.36;1489459;87;21457;-84
2023/07/04 10:08:11;;;;;;;20.05;14.00;;;;;;;25.34;79.14;100328.83;1476422;87;21561;-86
2023/07/04 10:10:52;;;;;;;15.93;13.47;;;;;;;25.46;78.40;100326.83;1489075;87;21518;-87
2023/07/04 10:13:24;;;;;;;18.85;13.72;;;;;;;25.62;77.61;100331.41;1481598;87;21337;-87
2023/07/04 10:15:51;;;;;;;19.80;12.33;;;;;;;25.80;77.35;100322.70;1478988;88;21374;-86
2023/07/04 10:18:29;;;;;;;16.60;13.13;;;;;;;25.95;76.43;100320.25;1489384;87;21566;-87
2023/07/04 10:20:58;;;;;;;17.10;11.97;;;;;;;26.14;76.70;100326.70;1474693;88;22283;-83
2023/07/04 10:23:28;;;;;;;16.10;12.05;;;;;;;26.19;74.31;100324.86;1492961;87;22204;-84
2023/07/04 10:25:59;;;;;;;17.40;10.93;;;;;;;26.29;72.67;100322.80;1563031;87;22057;-83
2023/07/04 10:28:28;;;;;;;14.78;11.05;;;;;;;26.41;68.87;100322.11;1575624;87;21293;-85
2023/07/04 10:31:09;;;;;;;16.67;11.10;;;;;;;26.44;68.82;100322.98;1405121;88;21346;-83
2023/07/04 10:33:44;;;;;;;12.75;10.38;;;;;;;26.59;69.06;100326.95;1397947;89;21520;-85
2023/07/04 10:36:16;;;;;;;11.60;10.28;;;;;;;26.73;68.39;100319.50;1575391;87;21285;-83
2023/07/04 10:38:49;;;;;;;24.02;11.43;;;;;;;26.81;66.81;100315.48;1404543;88;21352;-84
2023/07/04 10:41:32;;;;;;;19.25;11.05;;;;;;;26.82;65.73;100316.32;1407250;89;22179;-79
2023/07/04 10:44:04;;;;;;;17.67;10.48;;;;;;;26.92;65.81;100314.48;1411581;87;21381;-86
2023/07/04 10:46:36;;;;;;;15.50;10.68;;;;;;;26.99;64.44;100315.11;1397880;89;21316;-85
2023/07/04 10:49:06;;;;;;;14.53;10.23;;;;;;;27.10;63.15;100307.02;1400650;89;21448;-83
2023/07/04 10:51:40;;;;;;;13.95;9.85;;;;;;;27.23;60.66;100313.41;1403626;88;21375;-84
2023/07/04 10:54:10;;;;;;;12.65;10.13;;;;;;;27.24;61.30;100317.75;1562909;88;21280;-85
2023/07/04 10:56:36;;;;;;;16.62;11.55;;;;;;;27.24;62.15;100309.61;1543831;88;22145;-84
2023/07/04 10:59:14;;;;;;;16.73;9.45;;;;;;;27.19;61.34;100315.84;1417608;87;21452;-84
2023/07/04 11:01:52;;;;;;;17.73;9.63;;;;;;;27.15;59.20;100312.50;1407690;87;21322;-84
2023/07/04 11:04:31;;;;;;;15.32;9.55;;;;;;;27.12;61.20;100311.13;1397105;89;21375;-85
2023/07/04 11:07:06;;;;;;;22.00;10.03;;;;;;;27.09;60.10;100317.63;1380787;89;21581;-84
2023/07/04 11:09:37;;;;;;;15.23;9.48;;;;;;;27.10;61.42;100311.09;1556836;88;21309;-84
2023/07/04 11:12:08;;;;;;;18.57;10.32;;;;;;;26.97;59.65;100313.19;1562648;88;22189;-85
2023/07/04 11:14:40;;;;;;;17.57;10.63;;;;;;;26.97;60.95;100313.19;1402578;88;21315;-84
2023/07/04 11:17:11;;;;;;;14.75;10.18;;;;;;;27.03;60.39;100312.69;1528252;88;22366;-84
2023/07/04 11:19:55;;;;;;;13.68;10.40;;;;;;;27.11;60.72;100314.11;1563103;88;22137;-84
2023/07/04 11:23:00;;;;;;;15.78;9.75;;;;;;;27.20;61.25;100319.38;1413875;87;22181;-84
2023/07/04 11:25:35;;;;;;;11.33;9.05;;;;;;;27.24;61.54;100315.04;1399822;87;21242;-82